createdAt,value
2023-02-13T00:02:25.232Z,8.58
2023-02-13T00:04:51.719Z,8.42
2023-02-13T00:07:18.157Z,8.58
2023-02-13T00:09:44.544Z,8.39
2023-02-13T00:12:10.913Z,8.44
2023-02-13T00:14:39.128Z,8.51
2023-02-13T00:17:06.523Z,8.51
2023-02-13T00:19:33.329Z,8.53
2023-02-13T00:21:59.714Z,8.36
2023-02-13T00:24:26.172Z,8.40
2023-02-13T00:26:52.551Z,8.37
2023-02-13T00:29:19.262Z,8.50
2023-02-13T00:31:45.808Z,8.51
2023-02-13T00:34:13.842Z,8.48
2023-02-13T00:36:40.345Z,8.45
2023-02-13T00:39:06.749Z,8.44
2023-02-13T00:41:33.205Z,8.51
2023-02-13T00:43:59.613Z,8.53
2023-02-13T00:46:26.092Z,8.50
2023-02-13T00:48:53.180Z,8.52
2023-02-13T00:51:19.581Z,8.51
2023-02-13T00:53:46.094Z,8.53
2023-02-13T00:56:15.016Z,8.51
2023-02-13T00:58:44.877Z,8.43
2023-02-13T01:01:11.885Z,8.41
2023-02-13T01:03:38.371Z,8.44
2023-02-13T01:06:05.463Z,8.37
2023-02-13T01:08:33.318Z,8.29
2023-02-13T01:11:00.180Z,8.33
2023-02-13T01:13:27.117Z,8.30
2023-02-13T01:15:53.846Z,8.24
2023-02-13T01:18:20.459Z,8.30
2023-02-13T01:20:57.314Z,8.26
2023-02-13T01:23:23.981Z,8.25
2023-02-13T01:25:51.672Z,8.22
2023-02-13T01:28:18.766Z,8.19
2023-02-13T01:30:45.202Z,8.22
2023-02-13T01:33:12.134Z,8.25
2023-02-13T01:35:41.512Z,8.25
2023-02-13T01:38:09.445Z,8.12
2023-02-13T01:40:35.937Z,8.10
2023-02-13T01:43:02.329Z,8.16
2023-02-13T01:45:30.825Z,8.12
2023-02-13T01:48:14.959Z,8.11
2023-02-13T01:50:50.899Z,8.16
2023-02-13T01:53:24.242Z,8.10
2023-02-13T01:56:02.746Z,8.09
2023-02-13T01:58:35.944Z,8.12
2023-02-13T02:01:03.302Z,8.10
2023-02-13T02:03:48.121Z,8.07
2023-02-13T02:06:25.470Z,8.06
2023-02-13T02:08:54.274Z,8.00
2023-02-13T02:11:30.633Z,8.02
2023-02-13T02:13:58.329Z,8.00
2023-02-13T02:16:33.136Z,7.97
2023-02-13T02:19:26.397Z,7.97
2023-02-13T02:22:17.774Z,7.96
2023-02-13T02:24:55.948Z,7.91
2023-02-13T02:27:47.095Z,7.95
2023-02-13T02:30:21.137Z,7.88
2023-02-13T02:33:17.007Z,7.91
2023-02-13T02:35:59.087Z,7.96
2023-02-13T02:38:43.718Z,7.89
2023-02-13T02:41:48.081Z,7.90
2023-02-13T02:44:30.852Z,7.94
2023-02-13T02:47:20.177Z,7.93
2023-02-13T02:49:58.548Z,7.91
2023-02-13T02:52:39.429Z,7.96
2023-02-13T02:55:22.469Z,7.99
2023-02-13T02:58:24.901Z,7.95
2023-02-13T03:01:17.601Z,7.96
2023-02-13T03:04:04.492Z,7.98
2023-02-13T03:06:38.632Z,7.93
2023-02-13T03:09:29.148Z,7.95
2023-02-13T03:12:15.342Z,7.90
2023-02-13T03:14:42.926Z,7.86
2023-02-13T03:17:31.497Z,7.93
2023-02-13T03:20:39.278Z,7.90
2023-02-13T03:23:17.220Z,8.00
2023-02-13T03:25:54.089Z,7.99
2023-02-13T03:28:55.169Z,7.96
2023-02-13T03:31:27.808Z,7.90
2023-02-13T03:33:58.605Z,7.94
2023-02-13T03:37:03.426Z,7.92
2023-02-13T03:40:01.047Z,7.96
2023-02-13T03:42:34.400Z,7.91
2023-02-13T03:45:25.766Z,7.93
2023-02-13T03:47:56.142Z,7.89
2023-02-13T03:50:24.555Z,7.92
2023-02-13T03:52:55.674Z,7.99
2023-02-13T03:55:44.524Z,7.95
2023-02-13T03:58:51.154Z,7.91
2023-02-13T04:01:21.845Z,7.83
2023-02-13T04:03:59.120Z,7.88
2023-02-13T04:06:49.236Z,7.87
2023-02-13T04:09:17.024Z,7.91
2023-02-13T04:11:53.066Z,7.81
2023-02-13T04:14:24.985Z,7.84
2023-02-13T04:16:58.249Z,7.88
2023-02-13T04:19:26.636Z,7.74
2023-02-13T04:21:59.431Z,7.72
2023-02-13T04:24:26.978Z,7.76
2023-02-13T04:26:54.417Z,7.80
2023-02-13T04:29:25.107Z,7.72
2023-02-13T04:31:52.168Z,7.71
2023-02-13T04:34:18.686Z,7.74
2023-02-13T04:36:45.070Z,7.78
2023-02-13T04:39:11.626Z,7.75
2023-02-13T04:41:38.013Z,7.74
2023-02-13T04:44:04.711Z,7.77
2023-02-13T04:46:31.096Z,7.74
2023-02-13T04:48:57.499Z,7.71
2023-02-13T04:51:23.942Z,7.66
2023-02-13T04:53:50.360Z,7.65
2023-02-13T04:56:18.498Z,7.58
2023-02-13T04:58:45.998Z,7.63
2023-02-13T05:01:14.305Z,7.70
2023-02-13T05:03:40.792Z,7.66
2023-02-13T05:06:07.221Z,7.67
2023-02-13T05:08:34.202Z,7.68
2023-02-13T05:11:00.714Z,7.68
2023-02-13T05:13:27.113Z,7.58
2023-02-13T05:15:53.551Z,7.57
2023-02-13T05:18:20.387Z,7.73
2023-02-13T05:21:06.774Z,7.71
2023-02-13T05:23:33.193Z,7.69
2023-02-13T05:25:59.706Z,7.67
2023-02-13T05:28:44.421Z,7.58
2023-02-13T05:31:10.888Z,7.54
2023-02-13T05:33:37.353Z,7.56
2023-02-13T05:36:03.973Z,7.52
2023-02-13T05:38:30.365Z,7.52
2023-02-13T05:40:59.678Z,7.53
2023-02-13T05:43:27.437Z,7.58
2023-02-13T05:46:08.909Z,7.54
2023-02-13T05:48:35.642Z,7.42
2023-02-13T05:51:02.200Z,7.49
2023-02-13T05:53:29.709Z,7.56
2023-02-13T05:55:56.128Z,7.50
2023-02-13T05:58:22.517Z,7.41
2023-02-13T06:00:48.919Z,7.50
2023-02-13T06:03:15.524Z,7.45
2023-02-13T06:05:41.925Z,7.49
2023-02-13T06:08:08.348Z,7.50
2023-02-13T06:10:34.790Z,7.47
2023-02-13T06:13:01.181Z,7.51
2023-02-13T06:15:27.749Z,7.48
2023-02-13T06:17:54.132Z,7.45
2023-02-13T06:20:20.655Z,7.48
2023-02-13T06:22:51.577Z,7.44
2023-02-13T06:25:18.802Z,7.38
2023-02-13T06:27:45.218Z,7.44
2023-02-13T06:30:12.048Z,7.38
2023-02-13T06:32:38.502Z,7.40
2023-02-13T06:35:05.795Z,7.44
2023-02-13T06:37:32.599Z,7.40
2023-02-13T06:39:59.021Z,7.52
2023-02-13T06:42:25.458Z,7.48
2023-02-13T06:44:51.915Z,7.51
2023-02-13T06:47:18.304Z,7.44
2023-02-13T06:49:44.723Z,7.47
2023-02-13T06:52:11.145Z,7.48
2023-02-13T06:54:47.452Z,7.48
2023-02-13T06:57:14.955Z,7.48
2023-02-13T06:59:41.428Z,7.48
2023-02-13T07:02:10.617Z,7.53
2023-02-13T07:04:37.091Z,7.51
2023-02-13T07:07:03.491Z,7.52
2023-02-13T07:09:31.871Z,7.50
2023-02-13T07:11:58.547Z,7.48
2023-02-13T07:14:24.961Z,7.47
2023-02-13T07:16:51.356Z,7.49
2023-02-13T07:19:17.763Z,7.47
2023-02-13T07:21:44.177Z,7.49
2023-02-13T07:24:10.597Z,7.42
2023-02-13T07:26:37.006Z,7.50
2023-02-13T07:29:11.639Z,7.43
2023-02-13T07:31:39.355Z,7.50
2023-02-13T07:34:06.151Z,7.50
2023-02-13T07:36:32.568Z,7.56
2023-02-13T07:38:59.004Z,7.53
2023-02-13T07:41:28.122Z,7.57
2023-02-13T07:43:54.540Z,7.64
2023-02-13T07:46:21.002Z,7.62
2023-02-13T07:48:47.463Z,7.61
2023-02-13T07:51:13.944Z,7.62
2023-02-13T07:53:40.335Z,7.62
2023-02-13T07:56:08.195Z,7.66
2023-02-13T07:58:35.801Z,7.68
2023-02-13T08:01:09.777Z,7.66
2023-02-13T08:03:36.838Z,7.67
2023-02-13T08:06:03.896Z,7.68
2023-02-13T08:08:30.317Z,7.76
2023-02-13T08:11:16.138Z,7.78
2023-02-13T08:13:43.512Z,7.76
2023-02-13T08:16:10.079Z,7.70
2023-02-13T08:18:36.590Z,7.72
2023-02-13T08:21:03.525Z,7.78
2023-02-13T08:23:30.197Z,7.70
2023-02-13T08:26:01.163Z,7.72
2023-02-13T08:28:28.854Z,7.61
2023-02-13T08:30:55.558Z,7.74
2023-02-13T08:33:22.042Z,7.71
2023-02-13T08:35:48.686Z,7.74
2023-02-13T08:38:15.076Z,7.76
2023-02-13T08:40:41.515Z,7.75
2023-02-13T08:43:08.472Z,7.82
2023-02-13T08:45:35.797Z,7.80
2023-02-13T08:48:04.130Z,7.82
2023-02-13T08:50:31.117Z,7.76
2023-02-13T08:52:58.392Z,7.86
2023-02-13T08:55:24.832Z,7.88
2023-02-13T08:57:51.230Z,7.83
2023-02-13T09:00:17.719Z,7.86
2023-02-13T09:02:44.202Z,7.88
2023-02-13T09:05:10.664Z,7.86
2023-02-13T09:07:37.061Z,7.79
2023-02-13T09:10:03.498Z,7.88
2023-02-13T09:12:29.896Z,7.94
2023-02-13T09:14:56.276Z,7.87
2023-02-13T09:17:22.695Z,7.97
2023-02-13T09:19:49.148Z,8.05
2023-02-13T09:22:17.237Z,7.94
2023-02-13T09:24:43.710Z,7.96
2023-02-13T09:27:10.204Z,7.98
2023-02-13T09:29:36.604Z,7.89
2023-02-13T09:32:05.193Z,7.99
2023-02-13T09:34:31.651Z,8.04
2023-02-13T09:36:58.051Z,7.98
2023-02-13T09:39:24.442Z,8.10
2023-02-13T09:41:53.342Z,8.06
2023-02-13T09:44:42.091Z,8.17
2023-02-13T09:47:16.471Z,8.15
2023-02-13T09:49:53.555Z,8.09
2023-02-13T09:52:20.226Z,8.16
2023-02-13T09:54:46.651Z,8.14
2023-02-13T09:57:20.325Z,8.19
2023-02-13T10:00:13.146Z,8.18
2023-02-13T10:02:58.849Z,8.29
2023-02-13T10:05:57.587Z,8.25
2023-02-13T10:08:36.463Z,8.32
2023-02-13T10:11:17.918Z,8.17
2023-02-13T10:14:04.784Z,8.35
2023-02-13T10:16:39.306Z,8.26
2023-02-13T10:19:16.300Z,8.35
2023-02-13T10:21:52.791Z,8.22
2023-02-13T10:24:31.493Z,8.30
2023-02-13T10:27:01.013Z,8.39
2023-02-13T10:30:01.344Z,8.59
2023-02-13T10:32:37.110Z,8.49
2023-02-13T10:35:10.220Z,8.34
2023-02-13T10:37:38.202Z,8.44
2023-02-13T10:40:10.805Z,8.41
2023-02-13T10:42:45.145Z,8.38
2023-02-13T10:45:39.405Z,8.36
2023-02-13T10:57:05.881Z,8.63
2023-02-13T11:00:13.637Z,8.78
2023-02-13T11:02:41.274Z,8.84
2023-02-13T11:05:15.952Z,8.80
2023-02-13T11:07:44.151Z,8.88
2023-02-13T11:10:19.445Z,8.74
2023-02-13T11:12:46.535Z,8.62
2023-02-13T11:15:30.825Z,8.55
2023-02-13T11:18:14.639Z,8.60
2023-02-13T11:20:47.890Z,8.64
2023-02-13T11:23:23.765Z,8.53
2023-02-13T11:25:57.256Z,8.49
2023-02-13T11:28:24.189Z,8.61
2023-02-13T11:30:50.771Z,8.88
2023-02-13T11:33:17.217Z,8.78
2023-02-13T11:35:45.713Z,8.67
2023-02-13T11:38:12.041Z,8.73
2023-02-13T11:40:38.625Z,8.80
2023-02-13T11:43:14.429Z,8.76
2023-02-13T11:45:40.942Z,8.78
2023-02-13T11:48:21.292Z,8.73
2023-02-13T11:50:53.123Z,8.78
2023-02-13T11:53:25.588Z,8.82
2023-02-13T11:56:06.848Z,8.87
2023-02-13T11:58:33.957Z,8.70
2023-02-13T12:01:22.356Z,8.87
2023-02-13T12:04:18.638Z,8.90
2023-02-13T12:07:03.022Z,8.90
2023-02-13T12:09:31.176Z,9.01
2023-02-13T12:12:02.591Z,9.00
2023-02-13T12:14:37.952Z,8.98
2023-02-13T12:17:09.567Z,8.91
2023-02-13T12:19:43.870Z,8.96
2023-02-13T12:22:37.007Z,9.01
2023-02-13T12:25:33.508Z,9.05
2023-02-13T12:28:28.278Z,8.94
2023-02-13T12:31:27.842Z,8.94
2023-02-13T12:34:14.858Z,8.90
2023-02-13T12:37:09.130Z,9.05
2023-02-13T12:39:41.806Z,9.02
2023-02-13T12:42:45.218Z,9.11
2023-02-13T12:45:30.649Z,9.00
2023-02-13T12:48:21.515Z,9.01
2023-02-13T12:51:16.178Z,9.13
2023-02-13T12:53:50.829Z,9.02
2023-02-13T12:56:33.175Z,8.98
2023-02-13T12:59:21.312Z,8.94
2023-02-13T13:02:15.990Z,8.80
2023-02-13T13:05:13.615Z,8.74
2023-02-13T13:07:58.328Z,8.76
2023-02-13T13:10:51.485Z,8.82
2023-02-13T13:13:29.166Z,8.86
2023-02-13T13:16:12.472Z,8.85
2023-02-13T13:19:15.239Z,9.00
2023-02-13T13:21:47.952Z,8.93
2023-02-13T13:24:30.121Z,8.97
2023-02-13T13:26:57.998Z,8.82
2023-02-13T13:29:32.601Z,8.81
2023-02-13T13:32:03.698Z,8.91
2023-02-13T13:34:31.539Z,8.96
2023-02-13T13:37:11.770Z,8.82
2023-02-13T13:39:49.852Z,8.78
2023-02-13T13:42:41.074Z,8.76
2023-02-13T13:45:07.384Z,8.72
2023-02-13T13:47:54.054Z,8.81
2023-02-13T13:50:26.049Z,8.90
2023-02-13T13:53:06.571Z,8.98
2023-02-13T13:55:52.667Z,9.05
2023-02-13T13:58:49.529Z,9.03
2023-02-13T14:01:25.040Z,8.97
2023-02-13T14:03:52.676Z,8.92
2023-02-13T14:06:22.749Z,8.89
2023-02-13T14:08:49.578Z,8.95
2023-02-13T14:11:40.107Z,8.86
2023-02-13T14:14:28.385Z,8.72
2023-02-13T14:16:57.441Z,8.89
2023-02-13T14:19:30.122Z,8.85
2023-02-13T14:22:24.513Z,8.84
2023-02-13T14:24:51.727Z,8.82
2023-02-13T14:27:24.462Z,8.93
2023-02-13T14:29:51.168Z,8.94
2023-02-13T14:32:22.026Z,8.94
2023-02-13T14:35:04.539Z,8.93
2023-02-13T14:37:37.140Z,8.94
2023-02-13T14:40:15.235Z,8.88
2023-02-13T14:42:44.737Z,8.84
2023-02-13T14:45:27.138Z,9.01
2023-02-13T14:47:56.450Z,9.06
2023-02-13T14:50:30.602Z,9.02
2023-02-13T14:53:00.571Z,9.10
2023-02-13T14:55:40.893Z,9.06
2023-02-13T14:58:12.521Z,9.03
2023-02-13T15:00:57.308Z,9.02
2023-02-13T15:03:29.288Z,9.06
2023-02-13T15:06:00.979Z,9.04
2023-02-13T15:08:45.229Z,9.06
2023-02-13T15:11:35.648Z,9.03
2023-02-13T15:14:28.001Z,9.00
2023-02-13T15:16:59.650Z,8.92
2023-02-13T15:19:26.646Z,9.01
2023-02-13T15:21:56.561Z,9.07
2023-02-13T15:24:24.016Z,9.04
2023-02-13T15:26:57.461Z,9.01
2023-02-13T15:29:35.223Z,8.89
2023-02-13T15:32:25.820Z,8.86
2023-02-13T15:34:52.209Z,8.86
2023-02-13T15:37:24.594Z,8.83
2023-02-13T15:39:51.031Z,8.81
2023-02-13T15:42:17.424Z,8.72
2023-02-13T15:44:47.239Z,8.66
2023-02-13T15:47:26.399Z,8.65
2023-02-13T15:49:53.116Z,8.53
2023-02-13T15:52:36.448Z,8.49
2023-02-13T15:55:03.395Z,8.60
2023-02-13T15:57:30.219Z,8.70
2023-02-13T15:59:58.736Z,8.75
2023-02-13T16:02:43.127Z,8.74
2023-02-13T16:05:12.484Z,8.70
2023-02-13T16:07:57.351Z,8.67
2023-02-13T16:10:31.474Z,8.65
2023-02-13T16:13:00.967Z,8.69
2023-02-13T16:15:30.701Z,8.68
2023-02-13T16:17:58.096Z,8.59
2023-02-13T16:20:27.480Z,8.63
2023-02-13T16:23:01.131Z,8.62
2023-02-13T16:25:39.608Z,8.60
2023-02-13T16:28:28.136Z,8.64
2023-02-13T16:31:00.184Z,8.58
2023-02-13T16:33:31.932Z,8.66
2023-02-13T16:36:17.343Z,8.61
2023-02-13T16:38:50.492Z,8.58
2023-02-13T16:41:19.589Z,8.53
2023-02-13T16:43:48.756Z,8.60
2023-02-13T16:46:15.088Z,8.56
2023-02-13T16:48:43.078Z,8.54
2023-02-13T16:51:09.997Z,8.54
2023-02-13T16:53:37.563Z,8.49
2023-02-13T16:56:13.211Z,8.53
2023-02-13T16:58:39.876Z,8.54
2023-02-13T17:01:06.464Z,8.45
2023-02-13T17:03:33.017Z,8.53
2023-02-13T17:06:02.456Z,8.54
2023-02-13T17:08:30.742Z,8.53
2023-02-13T17:11:07.906Z,8.50
2023-02-13T17:13:34.647Z,8.38
2023-02-13T17:16:01.045Z,8.32
2023-02-13T17:18:27.776Z,8.35
2023-02-13T17:20:54.586Z,8.33
2023-02-13T17:23:24.368Z,8.29
2023-02-13T17:25:52.581Z,8.28
2023-02-13T17:28:22.032Z,8.37
2023-02-13T17:30:53.998Z,8.35
2023-02-13T17:33:25.737Z,8.33
2023-02-13T17:35:52.969Z,8.30
2023-02-13T17:38:19.822Z,8.31
2023-02-13T17:40:46.873Z,8.32
2023-02-13T17:43:16.006Z,8.36
2023-02-13T17:45:43.613Z,8.30
2023-02-13T17:48:10.050Z,8.32
2023-02-13T17:50:36.938Z,8.35
2023-02-13T17:53:07.097Z,8.27
2023-02-13T17:55:34.518Z,8.29
2023-02-13T17:58:01.737Z,8.36
2023-02-13T18:00:31.424Z,8.31
2023-02-13T18:02:59.495Z,8.25
2023-02-13T18:05:26.590Z,8.31
2023-02-13T18:07:53.186Z,8.23
2023-02-13T18:10:25.261Z,8.34
2023-02-13T18:12:53.744Z,8.27
2023-02-13T18:15:20.735Z,8.31
2023-02-13T18:17:47.673Z,8.25
2023-02-13T18:20:16.970Z,8.22
2023-02-13T18:22:43.720Z,8.29
2023-02-13T18:25:10.723Z,8.23
2023-02-13T18:27:37.316Z,8.19
2023-02-13T18:30:04.326Z,8.18
2023-02-13T18:32:30.763Z,8.16
2023-02-13T18:34:57.167Z,8.16
2023-02-13T18:37:23.680Z,8.17
2023-02-13T18:39:50.094Z,8.20
2023-02-13T18:42:18.656Z,8.18
2023-02-13T18:44:45.040Z,8.13
2023-02-13T18:47:11.626Z,8.08
2023-02-13T18:49:38.090Z,8.16
2023-02-13T18:52:04.749Z,8.12
2023-02-13T18:54:31.231Z,8.08
2023-02-13T18:56:57.643Z,8.08
2023-02-13T18:59:24.146Z,8.09
2023-02-13T19:01:50.615Z,8.10
2023-02-13T19:04:17.085Z,8.15
2023-02-13T19:06:44.617Z,8.11
2023-02-13T19:09:11.216Z,8.00
2023-02-13T19:11:38.806Z,8.00
2023-02-13T19:14:05.949Z,7.98
2023-02-13T19:16:34.137Z,8.03
2023-02-13T19:19:03.617Z,8.01
2023-02-13T19:21:31.716Z,7.93
2023-02-13T19:23:58.588Z,7.98
2023-02-13T19:26:27.153Z,7.98
2023-02-13T19:28:54.073Z,7.93
2023-02-13T19:31:23.761Z,7.88
2023-02-13T19:33:51.364Z,7.90
2023-02-13T19:36:21.418Z,7.87
2023-02-13T19:38:53.055Z,7.82
2023-02-13T19:41:19.446Z,7.77
2023-02-13T19:43:50.772Z,7.78
2023-02-13T19:46:20.505Z,7.80
2023-02-13T19:48:47.125Z,7.87
2023-02-13T19:51:16.729Z,7.89
2023-02-13T19:53:43.257Z,7.87
2023-02-13T19:56:12.889Z,7.78
2023-02-13T19:58:40.782Z,7.79
2023-02-13T20:01:15.305Z,7.80
2023-02-13T20:03:42.444Z,7.81
2023-02-13T20:06:12.569Z,7.78
2023-02-13T20:08:40.903Z,7.87
2023-02-13T20:11:14.463Z,7.79
2023-02-13T20:13:41.725Z,7.81
2023-02-13T20:16:10.960Z,7.78
2023-02-13T20:18:38.272Z,7.80
2023-02-13T20:21:06.434Z,7.80
2023-02-13T20:23:33.029Z,7.74
2023-02-13T20:26:08.277Z,7.74
2023-02-13T20:28:34.736Z,7.77
2023-02-13T20:31:03.808Z,7.75
2023-02-13T20:33:30.685Z,7.75
2023-02-13T20:35:57.088Z,7.75
2023-02-13T20:38:23.497Z,7.78
2023-02-13T20:40:49.900Z,7.76
2023-02-13T20:43:16.309Z,7.73
2023-02-13T20:45:42.774Z,7.72
2023-02-13T20:48:09.251Z,7.72
2023-02-13T20:50:35.668Z,7.68
2023-02-13T20:53:02.069Z,7.70
2023-02-13T20:55:28.471Z,7.70
2023-02-13T20:57:54.929Z,7.72
2023-02-13T21:00:21.546Z,7.69
2023-02-13T21:02:47.990Z,7.68
2023-02-13T21:05:14.450Z,7.64
2023-02-13T21:07:40.985Z,7.52
2023-02-13T21:10:07.846Z,7.61
2023-02-13T21:12:34.944Z,7.63
2023-02-13T21:15:01.383Z,7.66
2023-02-13T21:17:27.788Z,7.57
2023-02-13T21:19:54.229Z,7.59
2023-02-13T21:22:20.631Z,7.56
2023-02-13T21:24:49.547Z,7.49
2023-02-13T21:27:15.951Z,7.50
2023-02-13T21:29:42.339Z,7.51
2023-02-13T21:32:08.841Z,7.55
2023-02-13T21:34:35.286Z,7.54
2023-02-13T21:37:02.131Z,7.56
2023-02-13T21:39:28.571Z,7.53
2023-02-13T21:41:55.048Z,7.43
2023-02-13T21:44:21.679Z,7.44
2023-02-13T21:46:48.274Z,7.35
2023-02-13T21:49:17.248Z,7.35
2023-02-13T21:51:43.954Z,7.36
2023-02-13T21:54:10.956Z,7.26
2023-02-13T21:56:40.205Z,7.19
2023-02-13T21:59:07.461Z,7.25
2023-02-13T22:01:44.136Z,7.20
2023-02-13T22:04:10.737Z,7.17
2023-02-13T22:06:38.929Z,7.26
2023-02-13T22:09:15.964Z,7.27
2023-02-13T22:11:42.708Z,7.24
2023-02-13T22:14:13.422Z,7.21
2023-02-13T22:16:40.229Z,7.21
2023-02-13T22:19:07.094Z,7.21
2023-02-13T22:21:34.987Z,7.21
2023-02-13T22:24:02.109Z,7.19
2023-02-13T22:26:31.713Z,7.17
2023-02-13T22:29:00.932Z,7.14
2023-02-13T22:31:27.816Z,7.07
2023-02-13T22:34:03.749Z,6.98
2023-02-13T22:36:32.468Z,7.09
2023-02-13T22:38:58.897Z,7.18
2023-02-13T22:41:27.000Z,7.09
2023-02-13T22:43:53.956Z,7.18
2023-02-13T22:46:25.872Z,7.07
2023-02-13T22:48:53.195Z,7.07
2023-02-13T22:51:23.214Z,6.99
2023-02-13T22:53:53.490Z,6.97
2023-02-13T22:56:20.190Z,7.09
2023-02-13T22:58:46.586Z,7.03
2023-02-13T23:01:15.780Z,7.06
2023-02-13T23:03:42.313Z,7.05
2023-02-13T23:06:10.397Z,7.04
2023-02-13T23:08:37.485Z,7.08
2023-02-13T23:11:31.135Z,7.07
2023-02-13T23:13:57.927Z,7.05
2023-02-13T23:16:24.777Z,7.12
2023-02-13T23:18:53.065Z,7.07
2023-02-13T23:21:19.885Z,7.09
2023-02-13T23:23:46.390Z,7.13
2023-02-13T23:26:12.958Z,7.13
2023-02-13T23:28:39.422Z,7.07
2023-02-13T23:31:06.093Z,7.12
2023-02-13T23:33:32.635Z,7.17
2023-02-13T23:35:59.106Z,7.09
2023-02-13T23:38:25.724Z,7.03
2023-02-13T23:40:52.190Z,7.03
2023-02-13T23:43:18.599Z,7.01
2023-02-13T23:45:45.196Z,6.97
2023-02-13T23:48:12.713Z,6.83
2023-02-13T23:50:39.898Z,6.64
2023-02-13T23:53:06.441Z,6.71
2023-02-13T23:55:32.850Z,6.83
2023-02-13T23:57:59.305Z,6.86
